Time;durP1;ratioP1;P1;durP2;ratioP2;P2;SDS_P1;SDS_P2;PMS_P1;PMS_P2;Temp;Humidity;BMP_temperature;BMP_pressure;BME280_temperature;BME280_humidity;BME280_pressure;Samples;Min_cycle;Max_cycle;Signal;HPM_P1;HPM_P2
2022/06/21 00:01:03;;;;;;;1.57;1.47;;;;;;;;;;4994638;28;20188;-80
2022/06/21 00:03:29;;;;;;;1.63;1.53;;;;;;;;;;5008537;28;20188;-82
2022/06/21 00:05:55;;;;;;;1.53;1.43;;;;;;;;;;4994366;28;20302;-81
2022/06/21 00:08:22;;;;;;;1.60;1.50;;;;;;;;;;4994508;28;20182;-79
2022/06/21 00:10:48;;;;;;;2.20;1.33;;;;;;;;;;5011133;28;20187;-79
2022/06/21 00:13:18;;;;;;;1.50;1.40;;;;;;;;;;5008530;28;20182;-80
2022/06/21 00:15:46;;;;;;;1.90;1.63;;;;;;;;;;4990818;28;20274;-80
2022/06/21 00:18:12;;;;;;;1.50;1.40;;;;;;;;;;4988327;28;20184;-82
2022/06/21 00:20:37;;;;;;;1.43;1.30;;;;;;;;;;4992739;28;20181;-81
2022/06/21 00:23:03;;;;;;;1.50;1.40;;;;;;;;;;4994641;28;20197;-81
2022/06/21 00:25:28;;;;;;;1.83;1.70;;;;;;;;;;4990613;28;20178;-80
2022/06/21 00:27:54;;;;;;;1.83;1.67;;;;;;;;;;4989206;28;20230;-81
2022/06/21 00:30:20;;;;;;;1.63;1.53;;;;;;;;;;4990053;28;20194;-81
2022/06/21 00:32:47;;;;;;;1.43;1.33;;;;;;;;;;4988564;28;20269;-81
2022/06/21 00:35:15;;;;;;;2.57;1.70;;;;;;;;;;4990113;28;20204;-80
2022/06/21 00:37:41;;;;;;;1.90;1.43;;;;;;;;;;4989726;28;20206;-81
2022/06/21 00:40:16;;;;;;;1.87;1.50;;;;;;;;;;4991334;28;20245;-80
2022/06/21 00:42:44;;;;;;;1.43;1.33;;;;;;;;;;4990275;28;20207;-81
2022/06/21 00:45:29;;;;;;;2.60;1.67;;;;;;;;;;4990966;28;20187;-81
2022/06/21 00:47:57;;;;;;;2.40;1.40;;;;;;;;;;4988416;28;20194;-80
2022/06/21 00:50:25;;;;;;;1.37;1.27;;;;;;;;;;4989855;28;20188;-81
2022/06/21 00:52:56;;;;;;;1.60;1.30;;;;;;;;;;4987956;28;20171;-82
2022/06/21 00:55:40;;;;;;;3.03;1.47;;;;;;;;;;4992002;28;20291;-81
2022/06/21 00:58:07;;;;;;;1.50;1.40;;;;;;;;;;4986443;28;20168;-78
2022/06/21 01:00:35;;;;;;;1.70;1.50;;;;;;;;;;4990456;28;20183;-82
2022/06/21 01:03:03;;;;;;;1.60;1.50;;;;;;;;;;4988004;28;20270;-80
2022/06/21 01:05:30;;;;;;;1.63;1.37;;;;;;;;;;4989696;28;20203;-80
2022/06/21 01:07:57;;;;;;;2.33;1.40;;;;;;;;;;4989500;28;20188;-82
2022/06/21 01:10:23;;;;;;;4.30;1.90;;;;;;;;;;4990021;28;20271;-82
2022/06/21 01:12:51;;;;;;;1.93;1.57;;;;;;;;;;4985943;28;20188;-78
2022/06/21 01:15:29;;;;;;;1.70;1.60;;;;;;;;;;5005190;28;20254;-82
2022/06/21 01:17:56;;;;;;;1.60;1.50;;;;;;;;;;4989105;28;20190;-81
2022/06/21 01:20:23;;;;;;;1.63;1.40;;;;;;;;;;4990299;28;20187;-80
2022/06/21 01:22:51;;;;;;;1.97;1.70;;;;;;;;;;4990910;28;20203;-82
2022/06/21 01:25:29;;;;;;;1.90;1.80;;;;;;;;;;4990471;28;20184;-82
2022/06/21 01:27:55;;;;;;;1.23;1.13;;;;;;;;;;4986814;28;20252;-81
2022/06/21 01:30:22;;;;;;;1.73;1.63;;;;;;;;;;5005230;28;20191;-83
2022/06/21 01:32:48;;;;;;;1.40;1.30;;;;;;;;;;4989352;28;20185;-80
2022/06/21 01:35:28;;;;;;;1.50;1.40;;;;;;;;;;4989839;28;20221;-82
2022/06/21 01:37:54;;;;;;;1.93;1.70;;;;;;;;;;4986390;28;20203;-81
2022/06/21 01:40:26;;;;;;;1.53;1.43;;;;;;;;;;4988637;28;20187;-82
2022/06/21 01:42:54;;;;;;;1.60;1.40;;;;;;;;;;4989003;28;20180;-81
2022/06/21 01:45:24;;;;;;;1.80;1.70;;;;;;;;;;4990345;28;20183;-82
2022/06/21 01:47:53;;;;;;;1.73;1.40;;;;;;;;;;4989429;28;20279;-82
2022/06/21 01:50:20;;;;;;;2.90;1.53;;;;;;;;;;4989813;28;20180;-78
2022/06/21 01:52:46;;;;;;;2.40;1.40;;;;;;;;;;5008354;28;20199;-81
2022/06/21 01:55:24;;;;;;;3.57;1.67;;;;;;;;;;4992164;28;20265;-82
2022/06/21 01:57:50;;;;;;;2.13;1.60;;;;;;;;;;4993263;28;20200;-81
2022/06/21 02:00:15;;;;;;;1.70;1.60;;;;;;;;;;4990249;28;20181;-81
2022/06/21 02:02:54;;;;;;;1.37;1.30;;;;;;;;;;4992165;28;20195;-82
2022/06/21 02:05:25;;;;;;;1.63;1.53;;;;;;;;;;4992351;28;20188;-81
2022/06/21 02:07:58;;;;;;;1.93;1.73;;;;;;;;;;4993309;28;20211;-80
2022/06/21 02:10:47;;;;;;;1.60;1.50;;;;;;;;;;4993944;28;20181;-81
2022/06/21 02:13:30;;;;;;;2.27;1.90;;;;;;;;;;4989600;28;20198;-81
2022/06/21 02:16:05;;;;;;;1.80;1.70;;;;;;;;;;4988475;28;20209;-82
2022/06/21 02:18:31;;;;;;;1.67;1.57;;;;;;;;;;4993009;28;20188;-81
2022/06/21 02:21:05;;;;;;;2.40;1.60;;;;;;;;;;4989625;28;20176;-79
2022/06/21 02:23:30;;;;;;;2.43;1.60;;;;;;;;;;4992115;28;20191;-81
2022/06/21 02:25:56;;;;;;;1.77;1.67;;;;;;;;;;4992944;28;20213;-81
2022/06/21 02:28:22;;;;;;;2.10;1.90;;;;;;;;;;4991905;28;20231;-82
2022/06/21 02:30:48;;;;;;;3.97;2.23;;;;;;;;;;4993266;28;20234;-80
2022/06/21 02:33:15;;;;;;;3.17;2.10;;;;;;;;;;4992092;28;20282;-81
2022/06/21 02:35:44;;;;;;;1.80;1.70;;;;;;;;;;4992775;28;20200;-82
2022/06/21 02:38:29;;;;;;;1.90;1.80;;;;;;;;;;4993615;28;20202;-79
2022/06/21 02:41:09;;;;;;;2.07;1.87;;;;;;;;;;4989601;28;20544;-82
2022/06/21 02:43:37;;;;;;;1.70;1.60;;;;;;;;;;4988003;28;20183;-81
2022/06/21 02:46:08;;;;;;;2.20;2.00;;;;;;;;;;4993598;28;20256;-80
2022/06/21 02:48:35;;;;;;;2.90;1.60;;;;;;;;;;4991360;28;20184;-80
2022/06/21 02:51:05;;;;;;;1.77;1.67;;;;;;;;;;4991550;28;20194;-82
2022/06/21 02:53:32;;;;;;;3.20;1.90;;;;;;;;;;4992676;28;20182;-81
2022/06/21 02:56:07;;;;;;;2.27;2.10;;;;;;;;;;4992880;28;20449;-81
2022/06/21 02:58:39;;;;;;;4.37;2.20;;;;;;;;;;4990950;28;20775;-81
2022/06/21 03:01:06;;;;;;;2.47;1.60;;;;;;;;;;4991413;28;20205;-82
2022/06/21 03:03:32;;;;;;;2.10;1.90;;;;;;;;;;4988567;28;20262;-80
2022/06/21 03:05:59;;;;;;;2.07;1.90;;;;;;;;;;4993465;28;20253;-80
2022/06/21 03:08:27;;;;;;;1.90;1.80;;;;;;;;;;4992861;28;20192;-81
2022/06/21 03:10:52;;;;;;;1.53;1.43;;;;;;;;;;4992786;28;20201;-81
2022/06/21 03:13:17;;;;;;;2.60;1.93;;;;;;;;;;4990460;28;20191;-82
2022/06/21 03:15:45;;;;;;;2.07;1.60;;;;;;;;;;4988654;28;20202;-82
2022/06/21 03:18:13;;;;;;;2.70;1.87;;;;;;;;;;4989757;28;20185;-79
2022/06/21 03:20:39;;;;;;;2.83;2.03;;;;;;;;;;4991573;28;20184;-81
2022/06/21 03:23:05;;;;;;;2.13;1.93;;;;;;;;;;4991661;28;20249;-82
2022/06/21 03:25:38;;;;;;;2.23;2.03;;;;;;;;;;4989358;28;20188;-82
2022/06/21 03:28:19;;;;;;;2.47;1.73;;;;;;;;;;5006049;28;20234;-82
2022/06/21 03:30:45;;;;;;;2.07;1.70;;;;;;;;;;4991831;28;20194;-81
2022/06/21 03:33:10;;;;;;;2.10;2.00;;;;;;;;;;4996361;28;20214;-81
2022/06/21 03:35:36;;;;;;;2.00;1.90;;;;;;;;;;4995975;28;20281;-83
2022/06/21 03:38:02;;;;;;;1.93;1.80;;;;;;;;;;5011692;28;20203;-82
2022/06/21 03:43:14;;;;;;;1.73;1.63;;;;;;;;;;5010984;28;20192;-81
2022/06/21 03:45:40;;;;;;;2.23;1.83;;;;;;;;;;4996432;28;20286;-81
2022/06/21 03:48:09;;;;;;;2.43;1.87;;;;;;;;;;5009049;28;20266;-80
2022/06/21 03:50:36;;;;;;;2.17;1.50;;;;;;;;;;4994170;28;20175;-81
2022/06/21 03:53:08;;;;;;;3.47;1.70;;;;;;;;;;5005598;28;20187;-82
2022/06/21 03:55:42;;;;;;;2.03;1.83;;;;;;;;;;5009746;28;20267;-81
2022/06/21 03:58:28;;;;;;;3.00;1.60;;;;;;;;;;4991692;28;20179;-80
2022/06/21 04:00:59;;;;;;;1.70;1.60;;;;;;;;;;5011122;28;20172;-82
2022/06/21 04:03:27;;;;;;;1.90;1.80;;;;;;;;;;5007320;28;20179;-82
2022/06/21 04:06:02;;;;;;;2.13;1.80;;;;;;;;;;4997964;28;20184;-82
2022/06/21 04:08:34;;;;;;;2.57;1.93;;;;;;;;;;5010466;28;20175;-81
2022/06/21 04:11:06;;;;;;;1.90;1.50;;;;;;;;;;4995089;28;20194;-82
2022/06/21 04:13:46;;;;;;;4.73;2.30;;;;;;;;;;4994853;28;20176;-81
2022/06/21 04:16:17;;;;;;;2.30;1.90;;;;;;;;;;4991542;28;20267;-82
2022/06/21 04:18:57;;;;;;;2.93;2.73;;;;;;;;;;4994313;28;20203;-83
2022/06/21 04:21:30;;;;;;;3.33;2.03;;;;;;;;;;5004924;28;20172;-82
2022/06/21 04:23:58;;;;;;;2.23;1.97;;;;;;;;;;4994727;28;20176;-81
2022/06/21 04:26:34;;;;;;;2.43;1.60;;;;;;;;;;4992567;28;20210;-81
2022/06/21 04:28:59;;;;;;;2.13;1.70;;;;;;;;;;5009284;28;20197;-82
2022/06/21 04:31:27;;;;;;;3.28;1.75;;;;;;;;;;4993990;28;20184;-82
2022/06/21 04:33:52;;;;;;;3.90;1.90;;;;;;;;;;4990270;28;20182;-81
2022/06/21 04:36:35;;;;;;;2.60;2.10;;;;;;;;;;4996468;28;20201;-81
2022/06/21 04:39:09;;;;;;;2.47;1.90;;;;;;;;;;4990286;28;20215;-80
2022/06/21 04:41:43;;;;;;;3.30;1.80;;;;;;;;;;5002141;28;20183;-80
2022/06/21 04:44:19;;;;;;;2.03;1.90;;;;;;;;;;5009942;28;20237;-81
2022/06/21 04:46:50;;;;;;;3.43;2.13;;;;;;;;;;4992417;28;20210;-80
2022/06/21 04:49:29;;;;;;;1.90;1.80;;;;;;;;;;4991311;28;20227;-81
2022/06/21 04:51:57;;;;;;;2.03;1.87;;;;;;;;;;5008141;28;20251;-82
2022/06/21 04:54:24;;;;;;;3.63;2.30;;;;;;;;;;5008755;28;20238;-80
2022/06/21 04:56:59;;;;;;;2.30;1.97;;;;;;;;;;4986821;28;20184;-82
2022/06/21 04:59:26;;;;;;;3.53;2.00;;;;;;;;;;4991318;28;20457;-80
2022/06/21 05:01:52;;;;;;;4.70;2.13;;;;;;;;;;4990799;28;20498;-82
2022/06/21 05:04:22;;;;;;;2.90;1.90;;;;;;;;;;5009413;28;20278;-80
2022/06/21 05:06:48;;;;;;;2.70;2.43;;;;;;;;;;4991743;28;20183;-81
2022/06/21 05:09:15;;;;;;;2.37;2.17;;;;;;;;;;4998464;28;20193;-82
2022/06/21 05:11:40;;;;;;;2.87;2.40;;;;;;;;;;4994585;28;20278;-83
2022/06/21 05:14:09;;;;;;;2.60;2.40;;;;;;;;;;4991507;28;20444;-82
2022/06/21 05:16:38;;;;;;;3.83;2.00;;;;;;;;;;5003938;28;20198;-80
2022/06/21 05:19:09;;;;;;;2.13;2.03;;;;;;;;;;4991811;28;20180;-80
2022/06/21 05:21:43;;;;;;;3.33;2.60;;;;;;;;;;4992104;28;20222;-84
2022/06/21 05:24:09;;;;;;;2.50;2.30;;;;;;;;;;4994778;28;20182;-79
2022/06/21 05:26:47;;;;;;;3.13;2.13;;;;;;;;;;5005125;28;20190;-82
2022/06/21 05:29:16;;;;;;;2.33;2.13;;;;;;;;;;4992393;28;20274;-83
2022/06/21 05:31:43;;;;;;;2.40;2.20;;;;;;;;;;4992466;28;20271;-82
2022/06/21 05:34:25;;;;;;;3.90;2.53;;;;;;;;;;4991118;28;20213;-82
2022/06/21 05:36:55;;;;;;;2.57;2.37;;;;;;;;;;4993301;28;20249;-82
2022/06/21 05:39:22;;;;;;;3.33;2.20;;;;;;;;;;5008548;28;20171;-82
2022/06/21 05:41:50;;;;;;;2.80;2.40;;;;;;;;;;4987007;28;20186;-82
2022/06/21 05:44:34;;;;;;;2.50;2.30;;;;;;;;;;4993375;28;20213;-82
2022/06/21 05:47:03;;;;;;;2.60;2.40;;;;;;;;;;4993953;28;20178;-82
2022/06/21 05:49:31;;;;;;;2.87;2.20;;;;;;;;;;5007287;28;20226;-83
2022/06/21 05:52:00;;;;;;;2.33;2.13;;;;;;;;;;4997210;28;20206;-83
2022/06/21 05:54:28;;;;;;;4.50;2.70;;;;;;;;;;4992979;28;20203;-82
2022/06/21 05:56:54;;;;;;;2.80;2.60;;;;;;;;;;4990482;28;20231;-82
2022/06/21 05:59:20;;;;;;;2.60;2.30;;;;;;;;;;4993345;28;20263;-79
2022/06/21 06:01:54;;;;;;;2.80;2.10;;;;;;;;;;4992331;28;20208;-82
2022/06/21 06:04:38;;;;;;;3.07;2.77;;;;;;;;;;4991065;28;20215;-82
2022/06/21 06:07:05;;;;;;;2.60;2.40;;;;;;;;;;4992763;28;20190;-83
2022/06/21 06:09:34;;;;;;;3.27;2.80;;;;;;;;;;4995872;28;20176;-82
2022/06/21 06:11:59;;;;;;;3.03;2.83;;;;;;;;;;5003409;28;20207;-86
2022/06/21 06:14:31;;;;;;;4.87;2.90;;;;;;;;;;4991507;28;20234;-82
2022/06/21 06:16:57;;;;;;;3.67;2.63;;;;;;;;;;4992961;28;20186;-82
2022/06/21 06:19:32;;;;;;;3.87;3.03;;;;;;;;;;4995079;28;20235;-83
2022/06/21 06:22:13;;;;;;;3.37;2.97;;;;;;;;;;4990258;28;20242;-82
2022/06/21 06:25:08;;;;;;;4.33;2.83;;;;;;;;;;4990506;28;20200;-83
2022/06/21 06:27:45;;;;;;;3.40;3.10;;;;;;;;;;4985655;28;20270;-83
2022/06/21 06:30:11;;;;;;;3.67;3.23;;;;;;;;;;4993004;28;20179;-83
2022/06/21 06:32:38;;;;;;;3.93;3.50;;;;;;;;;;4993295;28;20265;-83
2022/06/21 06:35:12;;;;;;;4.73;3.07;;;;;;;;;;4990577;28;20211;-82
2022/06/21 06:37:41;;;;;;;3.30;3.00;;;;;;;;;;4996888;28;20207;-83
2022/06/21 06:40:14;;;;;;;4.10;3.77;;;;;;;;;;4999156;28;20266;-83
2022/06/21 06:42:40;;;;;;;4.60;3.93;;;;;;;;;;4995610;28;20188;-83
2022/06/21 06:45:11;;;;;;;4.40;4.00;;;;;;;;;;5000244;28;20183;-84
2022/06/21 06:47:37;;;;;;;3.47;3.20;;;;;;;;;;4993116;28;20190;-82
2022/06/21 06:50:12;;;;;;;3.90;3.60;;;;;;;;;;4998812;28;20263;-83
2022/06/21 06:52:54;;;;;;;3.57;3.17;;;;;;;;;;5000138;28;20189;-83
2022/06/21 06:55:28;;;;;;;3.63;3.17;;;;;;;;;;5011786;28;20213;-83
2022/06/21 06:57:56;;;;;;;5.57;3.93;;;;;;;;;;5006556;28;20182;-83
2022/06/21 07:00:24;;;;;;;4.00;3.60;;;;;;;;;;4996558;28;20212;-84
2022/06/21 07:02:56;;;;;;;3.57;3.23;;;;;;;;;;4991430;28;20271;-83
2022/06/21 07:05:36;;;;;;;4.73;3.57;;;;;;;;;;5009441;28;20209;-83
2022/06/21 07:08:14;;;;;;;6.20;2.90;;;;;;;;;;5001587;28;20190;-83
2022/06/21 07:10:40;;;;;;;4.33;4.03;;;;;;;;;;4996021;28;20249;-83
2022/06/21 07:13:07;;;;;;;4.17;3.80;;;;;;;;;;4995717;28;20194;-83
2022/06/21 07:15:35;;;;;;;4.70;4.00;;;;;;;;;;4996845;28;20207;-83
2022/06/21 07:18:00;;;;;;;4.73;4.23;;;;;;;;;;4991607;28;20183;-83
2022/06/21 07:20:45;;;;;;;3.47;3.17;;;;;;;;;;4995675;28;20186;-84
2022/06/21 07:23:15;;;;;;;4.60;4.17;;;;;;;;;;4991019;28;20199;-82
2022/06/21 07:25:43;;;;;;;3.60;3.30;;;;;;;;;;4996400;28;20183;-83
2022/06/21 07:28:31;;;;;;;4.63;4.33;;;;;;;;;;4991564;28;20290;-82
2022/06/21 07:30:58;;;;;;;4.67;4.07;;;;;;;;;;4990720;28;20230;-83
2022/06/21 07:33:32;;;;;;;6.27;3.70;;;;;;;;;;4984980;28;20182;-82
2022/06/21 07:36:10;;;;;;;5.43;3.77;;;;;;;;;;4990449;28;20212;-83
2022/06/21 07:38:41;;;;;;;6.70;4.00;;;;;;;;;;4986631;28;20260;-82
2022/06/21 07:41:11;;;;;;;4.77;4.10;;;;;;;;;;4990182;28;20193;-84
2022/06/21 07:43:39;;;;;;;5.70;5.17;;;;;;;;;;4985990;28;20190;-84
2022/06/21 07:46:07;;;;;;;8.40;5.73;;;;;;;;;;4989717;28;20493;-86
2022/06/21 07:48:37;;;;;;;8.00;5.50;;;;;;;;;;4987942;28;20191;-79
2022/06/21 07:51:08;;;;;;;6.73;4.90;;;;;;;;;;4991332;28;20194;-83
2022/06/21 07:53:54;;;;;;;6.03;5.13;;;;;;;;;;4991419;28;20181;-83
2022/06/21 07:56:25;;;;;;;6.67;6.07;;;;;;;;;;4988121;28;20177;-83
2022/06/21 07:58:53;;;;;;;6.87;5.20;;;;;;;;;;4991872;28;20286;-82
2022/06/21 08:07:26;;;;;;;5.93;5.10;;;;;;;;;;4992974;28;20219;-83
2022/06/21 08:10:00;;;;;;;6.80;6.07;;;;;;;;;;5003099;28;20244;-83
2022/06/21 08:12:26;;;;;;;6.90;6.20;;;;;;;;;;4992073;28;20189;-83
2022/06/21 08:14:52;;;;;;;7.03;6.30;;;;;;;;;;4991937;28;20197;-83
2022/06/21 08:17:19;;;;;;;7.47;6.77;;;;;;;;;;4991189;28;20180;-84
2022/06/21 08:19:51;;;;;;;7.40;6.70;;;;;;;;;;4991320;28;20184;-84
2022/06/21 08:22:16;;;;;;;6.97;6.27;;;;;;;;;;4990252;28;20235;-83
2022/06/21 08:24:54;;;;;;;8.00;6.60;;;;;;;;;;4991790;28;20209;-83
2022/06/21 08:27:23;;;;;;;8.80;6.80;;;;;;;;;;4987777;28;20235;-83
2022/06/21 08:30:09;;;;;;;7.20;6.60;;;;;;;;;;4987905;28;20199;-83
2022/06/21 08:32:54;;;;;;;6.37;5.80;;;;;;;;;;4989776;28;20179;-84
2022/06/21 08:35:26;;;;;;;6.60;6.00;;;;;;;;;;4990613;28;20289;-84
2022/06/21 08:38:10;;;;;;;7.47;6.30;;;;;;;;;;4990946;28;20194;-81
2022/06/21 08:40:36;;;;;;;10.73;7.90;;;;;;;;;;4985125;28;20270;-83
2022/06/21 08:43:33;;;;;;;8.07;6.50;;;;;;;;;;4991256;28;20270;-83
2022/06/21 08:46:05;;;;;;;6.67;5.97;;;;;;;;;;4965568;28;20193;-84
2022/06/21 08:48:39;;;;;;;6.43;5.80;;;;;;;;;;4990340;28;20198;-84
2022/06/21 08:51:14;;;;;;;6.97;6.27;;;;;;;;;;4989897;28;20233;-84
2022/06/21 08:53:49;;;;;;;5.60;5.03;;;;;;;;;;5004284;28;20186;-83
2022/06/21 08:56:20;;;;;;;6.10;5.50;;;;;;;;;;4990797;28;20202;-83
2022/06/21 08:59:04;;;;;;;5.00;4.50;;;;;;;;;;4989928;28;20180;-84
2022/06/21 09:01:52;;;;;;;6.17;5.00;;;;;;;;;;4989287;28;20181;-78
2022/06/21 09:04:36;;;;;;;5.43;4.93;;;;;;;;;;4985621;28;20199;-78
2022/06/21 09:07:15;;;;;;;8.23;4.73;;;;;;;;;;4987318;28;20195;-78
2022/06/21 09:09:59;;;;;;;4.60;4.27;;;;;;;;;;4985714;28;20194;-78
2022/06/21 09:12:32;;;;;;;5.53;4.90;;;;;;;;;;4991098;28;20179;-78
2022/06/21 09:15:13;;;;;;;5.80;5.20;;;;;;;;;;4991697;28;20212;-78
2022/06/21 09:17:44;;;;;;;5.77;4.93;;;;;;;;;;4987862;28;20206;-78
2022/06/21 09:20:09;;;;;;;4.43;4.03;;;;;;;;;;4990210;28;20189;-78
2022/06/21 09:22:34;;;;;;;4.67;4.30;;;;;;;;;;4988444;28;20188;-78
2022/06/21 09:24:59;;;;;;;4.80;4.40;;;;;;;;;;4986503;28;20208;-79
2022/06/21 09:27:40;;;;;;;4.75;4.38;;;;;;;;;;4988070;28;20246;-78
2022/06/21 09:30:11;;;;;;;4.90;4.50;;;;;;;;;;5002252;28;20256;-79
2022/06/21 09:32:50;;;;;;;4.03;3.73;;;;;;;;;;4987733;28;20276;-78
2022/06/21 09:35:36;;;;;;;5.03;3.73;;;;;;;;;;4988219;28;20207;-78
2022/06/21 09:38:26;;;;;;;4.00;3.67;;;;;;;;;;4988713;28;20201;-78
2022/06/21 09:41:10;;;;;;;4.30;4.00;;;;;;;;;;5003412;28;20181;-78
2022/06/21 09:43:38;;;;;;;4.50;4.20;;;;;;;;;;4989329;28;20185;-78
2022/06/21 09:46:30;;;;;;;4.73;4.03;;;;;;;;;;4989302;28;20210;-79
2022/06/21 09:48:55;;;;;;;4.70;3.80;;;;;;;;;;4954871;28;20199;-78
2022/06/21 09:51:20;;;;;;;4.37;3.77;;;;;;;;;;4986836;28;20210;-78
2022/06/21 09:54:04;;;;;;;4.20;3.07;;;;;;;;;;4990105;28;20281;-78
2022/06/21 09:56:42;;;;;;;3.73;3.40;;;;;;;;;;4988908;28;20205;-79
2022/06/21 09:59:12;;;;;;;6.67;4.03;;;;;;;;;;4986269;28;20213;-79
2022/06/21 10:01:56;;;;;;;4.37;4.07;;;;;;;;;;4986748;28;20192;-79
2022/06/21 10:04:40;;;;;;;4.07;3.63;;;;;;;;;;4982297;28;20209;-78
2022/06/21 10:07:18;;;;;;;4.43;4.07;;;;;;;;;;4989237;28;20187;-79
2022/06/21 10:09:43;;;;;;;3.90;3.60;;;;;;;;;;4989557;28;20237;-78
2022/06/21 10:12:19;;;;;;;4.37;4.00;;;;;;;;;;4991630;28;20191;-79
2022/06/21 10:14:47;;;;;;;8.73;4.77;;;;;;;;;;4989785;28;20261;-78
2022/06/21 10:17:31;;;;;;;4.00;3.63;;;;;;;;;;4992558;28;20183;-79
2022/06/21 10:20:02;;;;;;;10.13;4.32;;;;;;;;;;4994172;28;20177;-79
2022/06/21 10:22:40;;;;;;;4.20;3.67;;;;;;;;;;4993470;28;20203;-79
2022/06/21 10:25:05;;;;;;;4.35;3.95;;;;;;;;;;4993030;28;20183;-79
2022/06/21 10:27:36;;;;;;;4.63;4.00;;;;;;;;;;4996989;28;20255;-78
2022/06/21 10:30:01;;;;;;;4.10;3.80;;;;;;;;;;4993052;28;20188;-79
2022/06/21 10:32:30;;;;;;;4.88;4.47;;;;;;;;;;4992127;28;20176;-79
2022/06/21 10:35:01;;;;;;;4.90;4.05;;;;;;;;;;4992366;28;20489;-79
2022/06/21 10:37:33;;;;;;;6.20;4.38;;;;;;;;;;4993111;28;20204;-79
2022/06/21 10:40:17;;;;;;;4.17;3.50;;;;;;;;;;4988372;28;20191;-79
2022/06/21 10:42:48;;;;;;;4.35;3.88;;;;;;;;;;4990989;28;20176;-79
2022/06/21 10:45:33;;;;;;;3.88;3.58;;;;;;;;;;4992675;28;20195;-79
2022/06/21 10:48:01;;;;;;;4.88;3.90;;;;;;;;;;4989361;28;20176;-79
2022/06/21 10:50:55;;;;;;;5.05;3.45;;;;;;;;;;4995034;28;20207;-78
2022/06/21 10:53:36;;;;;;;4.57;4.18;;;;;;;;;;4988956;28;20184;-79
2022/06/21 10:58:52;;;;;;;3.88;3.67;;;;;;;;;;4984758;28;20238;-79
2022/06/21 11:01:31;;;;;;;4.30;3.90;;;;;;;;;;4989435;28;20177;-79
2022/06/21 11:04:02;;;;;;;4.25;3.85;;;;;;;;;;4987635;28;20180;-78
2022/06/21 11:06:33;;;;;;;4.60;4.20;;;;;;;;;;4993194;28;20172;-79
2022/06/21 11:09:03;;;;;;;4.00;3.60;;;;;;;;;;4991140;28;20207;-79
2022/06/21 11:11:40;;;;;;;4.43;4.00;;;;;;;;;;4993518;28;20183;-79
2022/06/21 11:14:09;;;;;;;4.50;4.18;;;;;;;;;;4992001;28;20179;-79
2022/06/21 11:16:39;;;;;;;4.53;3.97;;;;;;;;;;4991808;28;20303;-79
2022/06/21 11:19:07;;;;;;;4.43;4.00;;;;;;;;;;4990712;28;20179;-79
2022/06/21 11:21:42;;;;;;;4.80;4.38;;;;;;;;;;4991006;28;20180;-79
2022/06/21 11:24:22;;;;;;;6.45;3.70;;;;;;;;;;4991670;28;20179;-80
2022/06/21 11:26:53;;;;;;;3.50;3.17;;;;;;;;;;4989358;28;20235;-80
2022/06/21 11:29:28;;;;;;;4.65;3.97;;;;;;;;;;4996971;28;20230;-79
2022/06/21 11:32:09;;;;;;;7.75;4.22;;;;;;;;;;4994571;28;20182;-78
2022/06/21 11:34:39;;;;;;;4.20;3.85;;;;;;;;;;4993731;28;20214;-79
2022/06/21 11:37:20;;;;;;;4.30;3.72;;;;;;;;;;4991202;28;20206;-79
2022/06/21 11:40:05;;;;;;;4.65;4.25;;;;;;;;;;4994774;28;20186;-79
2022/06/21 11:42:35;;;;;;;4.35;4.00;;;;;;;;;;5000700;28;20183;-80
2022/06/21 11:45:11;;;;;;;5.28;3.58;;;;;;;;;;4990811;28;20204;-78
2022/06/21 11:47:49;;;;;;;4.90;4.18;;;;;;;;;;4989072;28;20184;-79
2022/06/21 11:50:23;;;;;;;4.72;4.20;;;;;;;;;;4994484;28;20206;-79
2022/06/21 11:53:07;;;;;;;6.53;4.10;;;;;;;;;;4997113;28;20193;-79
2022/06/21 11:55:41;;;;;;;4.22;3.92;;;;;;;;;;4993066;28;20199;-80
2022/06/21 11:58:21;;;;;;;5.10;3.70;;;;;;;;;;5012284;28;20175;-79
2022/06/21 12:00:50;;;;;;;6.72;4.75;;;;;;;;;;4993204;28;20179;-79
2022/06/21 12:03:23;;;;;;;5.95;4.30;;;;;;;;;;4997062;28;20176;-79
2022/06/21 12:06:01;;;;;;;4.75;4.35;;;;;;;;;;4994736;28;20190;-79
2022/06/21 12:08:41;;;;;;;7.43;3.72;;;;;;;;;;4991943;28;20186;-79
2022/06/21 12:11:15;;;;;;;4.50;4.00;;;;;;;;;;4995252;28;20294;-79
2022/06/21 12:13:51;;;;;;;4.50;4.10;;;;;;;;;;4993382;28;20184;-78
2022/06/21 12:16:45;;;;;;;4.15;3.80;;;;;;;;;;4993168;28;20207;-78
2022/06/21 12:19:15;;;;;;;3.92;3.63;;;;;;;;;;4974733;28;20311;-79
2022/06/21 12:21:48;;;;;;;3.97;3.50;;;;;;;;;;4995378;28;20171;-79
2022/06/21 12:24:15;;;;;;;4.00;3.53;;;;;;;;;;4992678;28;20186;-79
2022/06/21 12:26:41;;;;;;;6.25;4.30;;;;;;;;;;4990881;28;20191;-78
2022/06/21 12:29:11;;;;;;;3.70;3.40;;;;;;;;;;4993855;28;20183;-79
2022/06/21 12:31:42;;;;;;;4.47;4.00;;;;;;;;;;4996733;28;20175;-79
2022/06/21 12:34:10;;;;;;;3.92;3.63;;;;;;;;;;5010124;28;20234;-79
2022/06/21 12:37:01;;;;;;;4.40;4.00;;;;;;;;;;4993958;28;20199;-79
2022/06/21 12:39:31;;;;;;;6.32;4.15;;;;;;;;;;4989589;28;20188;-79
2022/06/21 12:42:16;;;;;;;4.20;3.80;;;;;;;;;;4988685;28;20257;-79
2022/06/21 12:45:00;;;;;;;4.88;4.07;;;;;;;;;;5006820;28;20274;-79
2022/06/21 12:47:25;;;;;;;5.03;3.90;;;;;;;;;;5015882;28;20215;-79
2022/06/21 12:50:09;;;;;;;3.92;3.63;;;;;;;;;;5004986;28;20214;-79
2022/06/21 12:52:44;;;;;;;5.05;3.95;;;;;;;;;;4999443;28;20476;-79
2022/06/21 12:55:28;;;;;;;4.38;3.80;;;;;;;;;;4990810;28;20210;-80
2022/06/21 12:58:05;;;;;;;8.10;4.55;;;;;;;;;;5008939;28;20210;-79
2022/06/21 13:00:42;;;;;;;5.32;4.40;;;;;;;;;;4993748;28;20174;-79
2022/06/21 13:03:19;;;;;;;7.43;4.15;;;;;;;;;;4990555;28;20190;-79
2022/06/21 13:05:57;;;;;;;5.35;4.25;;;;;;;;;;4993443;28;20183;-79
2022/06/21 13:08:41;;;;;;;3.78;3.10;;;;;;;;;;4992912;28;20201;-79
2022/06/21 13:11:22;;;;;;;4.68;3.95;;;;;;;;;;5008793;28;20218;-80
2022/06/21 13:14:01;;;;;;;5.80;3.88;;;;;;;;;;4994821;28;20218;-79
2022/06/21 13:16:53;;;;;;;4.32;4.00;;;;;;;;;;4994021;28;20191;-79
2022/06/21 13:19:21;;;;;;;4.20;3.83;;;;;;;;;;4990585;28;20202;-80
2022/06/21 13:21:58;;;;;;;3.83;3.47;;;;;;;;;;4989832;28;20180;-79
2022/06/21 13:24:32;;;;;;;3.53;3.33;;;;;;;;;;5005809;28;20230;-80
2022/06/21 13:26:58;;;;;;;4.90;3.58;;;;;;;;;;4992343;28;20250;-79
2022/06/21 13:29:38;;;;;;;4.55;4.13;;;;;;;;;;4987466;28;20207;-79
2022/06/21 13:32:06;;;;;;;5.75;4.40;;;;;;;;;;4989755;28;20271;-79
2022/06/21 13:34:40;;;;;;;3.80;3.50;;;;;;;;;;4982798;28;20196;-79
2022/06/21 13:37:08;;;;;;;5.65;3.80;;;;;;;;;;4981165;28;20192;-79
2022/06/21 13:39:33;;;;;;;4.07;3.78;;;;;;;;;;4984185;28;20223;-79
2022/06/21 13:44:49;;;;;;;8.68;4.35;;;;;;;;;;4984645;28;20429;-79
2022/06/21 13:47:21;;;;;;;4.45;3.72;;;;;;;;;;4990800;28;20192;-79
2022/06/21 13:49:48;;;;;;;4.25;3.60;;;;;;;;;;4986559;28;20181;-79
2022/06/21 13:52:16;;;;;;;5.20;4.47;;;;;;;;;;4990482;28;20291;-80
2022/06/21 13:54:47;;;;;;;8.07;4.43;;;;;;;;;;4993736;28;20216;-79
2022/06/21 13:57:36;;;;;;;4.78;3.67;;;;;;;;;;4993562;28;20183;-79
2022/06/21 14:00:01;;;;;;;3.70;3.45;;;;;;;;;;4975392;28;20196;-79
2022/06/21 14:02:26;;;;;;;4.55;3.88;;;;;;;;;;4991601;28;20184;-80
2022/06/21 14:04:56;;;;;;;5.47;4.32;;;;;;;;;;4993377;28;20176;-80
2022/06/21 14:07:37;;;;;;;8.95;3.97;;;;;;;;;;4992809;28;20219;-80
2022/06/21 14:10:20;;;;;;;6.38;3.95;;;;;;;;;;4991017;28;20180;-80
2022/06/21 14:12:50;;;;;;;6.70;4.40;;;;;;;;;;4992957;28;20184;-80
2022/06/21 14:15:20;;;;;;;4.80;4.40;;;;;;;;;;4994991;28;20204;-80
2022/06/21 14:17:53;;;;;;;6.10;4.13;;;;;;;;;;5258330;23;20243;-82
2022/06/21 14:20:29;;;;;;;4.30;3.92;;;;;;;;;;5010672;28;20249;-83
2022/06/21 14:23:13;;;;;;;6.13;4.30;;;;;;;;;;5010795;28;20246;-82
2022/06/21 14:25:43;;;;;;;4.18;3.78;;;;;;;;;;5006314;28;20188;-83
2022/06/21 14:28:12;;;;;;;4.82;3.92;;;;;;;;;;5010862;28;20266;-82
2022/06/21 14:30:42;;;;;;;4.22;3.90;;;;;;;;;;5036402;28;20195;-84
2022/06/21 14:33:14;;;;;;;6.53;4.25;;;;;;;;;;5014347;28;20187;-83
2022/06/21 14:35:43;;;;;;;4.53;4.13;;;;;;;;;;5012360;28;20238;-84
2022/06/21 14:38:09;;;;;;;7.50;6.80;;;;;;;;;;5013489;28;20206;-83
2022/06/21 14:40:43;;;;;;;4.95;4.38;;;;;;;;;;5013531;28;20168;-83
2022/06/21 14:43:18;;;;;;;6.35;4.30;;;;;;;;;;5011822;28;20185;-84
2022/06/21 14:45:46;;;;;;;4.00;3.80;;;;;;;;;;5012915;28;20186;-83
2022/06/21 14:48:22;;;;;;;4.72;4.32;;;;;;;;;;5017145;28;20178;-83
2022/06/21 14:50:48;;;;;;;4.05;3.75;;;;;;;;;;5008153;28;20183;-82
2022/06/21 14:53:25;;;;;;;4.40;4.00;;;;;;;;;;5011807;28;20192;-83
2022/06/21 14:56:09;;;;;;;4.03;3.72;;;;;;;;;;5014702;28;20463;-82
2022/06/21 14:58:53;;;;;;;6.93;4.07;;;;;;;;;;5011674;28;20278;-83
2022/06/21 15:01:21;;;;;;;5.50;4.90;;;;;;;;;;5010909;28;20182;-84
2022/06/21 15:04:02;;;;;;;4.95;4.00;;;;;;;;;;5006898;28;20175;-83
2022/06/21 15:06:33;;;;;;;3.97;3.65;;;;;;;;;;5012119;28;20207;-83
2022/06/21 15:09:13;;;;;;;4.72;4.13;;;;;;;;;;5017266;28;20186;-83
2022/06/21 15:12:00;;;;;;;5.30;4.20;;;;;;;;;;5006426;28;20190;-83
2022/06/21 15:14:31;;;;;;;4.93;4.30;;;;;;;;;;5011934;28;20205;-83
2022/06/21 15:17:00;;;;;;;4.63;4.00;;;;;;;;;;5011792;28;20288;-83
2022/06/21 15:19:55;;;;;;;4.85;4.43;;;;;;;;;;5010952;28;20187;-83
2022/06/21 15:22:39;;;;;;;6.03;4.45;;;;;;;;;;5009460;28;20183;-83
2022/06/21 15:25:13;;;;;;;4.70;4.20;;;;;;;;;;5015257;28;20183;-83
2022/06/21 15:27:42;;;;;;;6.70;4.70;;;;;;;;;;5012925;28;20189;-83
2022/06/21 15:30:08;;;;;;;4.43;4.05;;;;;;;;;;5011242;28;20246;-84